Time;durP1;ratioP1;P1;durP2;ratioP2;P2;SDS_P1;SDS_P2;PMS_P1;PMS_P2;Temp;Humidity;BMP_temperature;BMP_pressure;BME280_temperature;BME280_humidity;BME280_pressure;Samples;Min_cycle;Max_cycle;Signal;HPM_P1;HPM_P2
2022/05/13 00:00:44;;;;;;;5.30;3.25;;;15.80;99.90;;;;;;5069077;28;20047;-80
2022/05/13 00:03:10;;;;;;;4.80;3.42;;;15.70;99.90;;;;;;5069141;28;20050;-80
2022/05/13 00:05:35;;;;;;;3.95;3.38;;;15.80;99.90;;;;;;5068971;28;20476;-80
2022/05/13 00:08:01;;;;;;;6.85;3.33;;;15.70;99.90;;;;;;5086619;28;20032;-81
2022/05/13 00:10:27;;;;;;;4.90;3.83;;;15.70;99.90;;;;;;5069127;28;20619;-80
2022/05/13 00:12:53;;;;;;;4.93;3.17;;;;;;;;;;5069343;28;20259;-80
2022/05/13 00:15:22;;;;;;;8.35;3.72;;;15.60;99.90;;;;;;5068925;28;20048;-80
2022/05/13 00:17:47;;;;;;;6.80;3.15;;;15.60;99.90;;;;;;5068842;28;20116;-80
2022/05/13 00:20:15;;;;;;;5.22;2.95;;;15.60;99.90;;;;;;5087728;28;20058;-80
2022/05/13 00:22:55;;;;;;;9.57;4.75;;;15.60;99.90;;;;;;5087261;28;20056;-80
2022/05/13 00:25:24;;;;;;;7.03;3.85;;;15.50;99.90;;;;;;5068888;28;20035;-80
2022/05/13 00:27:50;;;;;;;3.50;3.20;;;;;;;;;;5087009;28;20024;-80
2022/05/13 00:30:16;;;;;;;7.60;4.05;;;15.40;99.90;;;;;;5068353;28;20024;-81
2022/05/13 00:32:44;;;;;;;4.05;3.40;;;;;;;;;;5086545;28;20373;-80
2022/05/13 00:35:10;;;;;;;4.78;3.00;;;15.40;99.90;;;;;;5068736;28;20144;-81
2022/05/13 00:37:36;;;;;;;4.93;3.83;;;15.40;99.90;;;;;;5086809;28;20094;-80
2022/05/13 00:40:03;;;;;;;3.70;3.10;;;15.40;99.90;;;;;;5087211;28;20378;-81
2022/05/13 00:42:29;;;;;;;3.30;2.80;;;15.50;99.90;;;;;;5068545;28;20027;-80
2022/05/13 00:44:57;;;;;;;5.38;3.63;;;15.50;99.90;;;;;;5070630;28;20036;-80
2022/05/13 00:47:23;;;;;;;4.18;3.10;;;15.50;99.90;;;;;;5068288;28;20031;-81
2022/05/13 00:49:49;;;;;;;5.00;3.20;;;;;;;;;;5086208;28;20389;-80
2022/05/13 00:52:15;;;;;;;3.40;2.92;;;15.40;99.90;;;;;;5086305;28;20538;-81
2022/05/13 00:54:42;;;;;;;5.20;3.35;;;15.30;99.90;;;;;;5068577;28;20028;-81
2022/05/13 00:57:11;;;;;;;7.32;3.35;;;15.30;99.90;;;;;;5069868;28;20545;-79
2022/05/13 00:59:39;;;;;;;5.22;3.03;;;15.30;99.90;;;;;;5069744;28;20063;-81
2022/05/13 01:02:05;;;;;;;6.38;4.07;;;;;;;;;;5086005;28;20075;-80
2022/05/13 01:04:33;;;;;;;6.13;3.38;;;15.30;99.90;;;;;;5086125;28;20035;-80
2022/05/13 01:07:04;;;;;;;3.60;3.20;;;15.40;99.90;;;;;;5085618;28;20477;-80
2022/05/13 01:09:36;;;;;;;3.80;3.10;;;15.30;99.90;;;;;;5068084;28;20179;-80
2022/05/13 01:12:07;;;;;;;5.30;3.78;;;15.30;99.90;;;;;;5085703;28;20320;-83
2022/05/13 01:14:42;;;;;;;5.22;3.60;;;15.40;99.90;;;;;;5064880;28;20064;-80
2022/05/13 01:20:32;;;;;;;6.68;3.58;;;15.40;99.90;;;;;;5021004;28;20366;-81
2022/05/13 01:23:05;;;;;;;4.82;3.72;;;15.30;99.90;;;;;;5064390;28;20234;-80
2022/05/13 01:25:33;;;;;;;8.20;4.13;;;15.20;99.90;;;;;;5064177;28;20033;-80
2022/05/13 01:28:19;;;;;;;8.27;4.07;;;15.20;99.90;;;;;;5064454;28;20404;-81
2022/05/13 01:30:52;;;;;;;5.43;4.05;;;15.20;99.90;;;;;;5066234;28;20064;-80
2022/05/13 01:33:19;;;;;;;5.90;3.60;;;15.30;99.90;;;;;;5064868;28;20246;-80
2022/05/13 01:35:47;;;;;;;5.30;3.70;;;15.30;99.90;;;;;;5065869;28;20059;-81
2022/05/13 01:38:14;;;;;;;5.75;3.72;;;15.30;99.90;;;;;;5065696;28;20124;-81
2022/05/13 01:40:40;;;;;;;5.63;3.30;;;;;;;;;;5064299;28;20129;-82
2022/05/13 01:43:07;;;;;;;5.60;3.53;;;12.80;99.90;;;;;;5066065;28;20024;-81
2022/05/13 01:45:33;;;;;;;4.68;3.47;;;15.20;99.90;;;;;;5065969;28;20512;-81
2022/05/13 01:47:59;;;;;;;5.50;3.67;;;15.40;99.90;;;;;;5069816;28;20028;-82
2022/05/13 01:50:26;;;;;;;7.22;3.92;;;15.40;99.90;;;;;;5066463;28;20020;-81
2022/05/13 01:52:54;;;;;;;8.52;5.03;;;15.30;99.90;;;;;;5065822;28;20021;-81
2022/05/13 01:55:20;;;;;;;6.30;3.92;;;15.30;99.90;;;;;;5067329;28;20071;-80
2022/05/13 01:57:46;;;;;;;7.63;3.67;;;15.20;99.90;;;;;;5068509;28;20059;-80
2022/05/13 02:00:13;;;;;;;4.78;3.38;;;15.20;99.90;;;;;;5067132;28;20476;-80
2022/05/13 02:05:24;;;;;;;4.53;3.53;;;15.20;99.90;;;;;;5068347;28;20055;-80
2022/05/13 02:07:51;;;;;;;7.32;3.95;;;15.20;99.90;;;;;;5068745;28;20059;-79
2022/05/13 02:10:17;;;;;;;4.95;3.90;;;15.10;99.90;;;;;;5068928;28;20028;-80
2022/05/13 02:12:44;;;;;;;5.13;4.18;;;15.00;99.90;;;;;;5067353;28;20029;-80
2022/05/13 02:15:10;;;;;;;5.10;3.95;;;14.90;99.90;;;;;;5084147;28;20048;-79
2022/05/13 02:17:36;;;;;;;7.30;4.30;;;14.90;99.90;;;;;;5088426;28;20020;-80
2022/05/13 02:20:06;;;;;;;7.70;4.68;;;14.90;99.90;;;;;;5070298;28;20032;-80
2022/05/13 02:22:33;;;;;;;6.50;4.07;;;15.00;99.90;;;;;;5090927;28;20020;-79
2022/05/13 02:24:59;;;;;;;7.72;3.83;;;14.90;99.90;;;;;;5092672;28;20050;-79
2022/05/13 02:27:24;;;;;;;7.40;3.20;;;14.80;99.90;;;;;;5092145;28;20450;-80
2022/05/13 02:29:50;;;;;;;7.40;4.07;;;14.80;99.90;;;;;;5092439;28;20368;-79
2022/05/13 02:32:16;;;;;;;5.07;3.08;;;14.70;99.90;;;;;;5092123;28;20478;-80
2022/05/13 02:34:42;;;;;;;6.85;4.72;;;14.70;99.90;;;;;;5092586;28;20465;-80
2022/05/13 02:37:08;;;;;;;9.02;4.45;;;14.70;99.90;;;;;;5092240;28;20024;-79
2022/05/13 02:39:33;;;;;;;5.07;3.95;;;14.70;99.90;;;;;;5092129;28;20145;-80
2022/05/13 02:41:59;;;;;;;5.97;3.63;;;14.70;99.90;;;;;;5092316;28;20095;-79
2022/05/13 02:44:25;;;;;;;7.45;4.63;;;14.80;99.90;;;;;;5091990;28;20119;-79
2022/05/13 02:46:51;;;;;;;6.50;4.10;;;15.00;99.90;;;;;;5091856;28;20027;-79
2022/05/13 02:49:17;;;;;;;9.63;4.43;;;15.00;99.90;;;;;;5092280;28;20020;-80
2022/05/13 02:51:46;;;;;;;7.20;3.55;;;15.00;99.90;;;;;;5091980;28;20016;-80
2022/05/13 02:54:12;;;;;;;5.10;4.28;;;15.00;99.90;;;;;;5091954;28;20112;-80
2022/05/13 02:56:38;;;;;;;4.68;4.13;;;15.00;99.90;;;;;;5091729;28;20099;-80
2022/05/13 02:59:04;;;;;;;4.90;3.75;;;15.00;99.90;;;;;;5091714;28;20446;-80
2022/05/13 03:01:32;;;;;;;6.40;4.68;;;15.00;99.90;;;;;;5073486;28;20670;-79
2022/05/13 03:03:58;;;;;;;6.65;3.70;;;15.00;99.90;;;;;;5073324;28;20169;-80
2022/05/13 03:06:24;;;;;;;4.70;4.10;;;14.90;99.90;;;;;;5091715;28;20028;-80
2022/05/13 03:08:50;;;;;;;5.13;4.18;;;14.90;99.90;;;;;;5091678;28;20023;-79
2022/05/13 03:11:17;;;;;;;4.65;4.13;;;14.90;99.90;;;;;;5091329;28;20034;-80
2022/05/13 03:13:42;;;;;;;8.73;3.42;;;15.40;99.90;;;;;;5091272;28;20072;-80
2022/05/13 03:16:14;;;;;;;6.03;4.40;;;14.90;99.90;;;;;;5091161;28;20449;-79
2022/05/13 03:18:41;;;;;;;8.07;5.07;;;14.90;99.90;;;;;;5091416;28;20020;-80
2022/05/13 03:21:08;;;;;;;9.45;3.63;;;15.00;99.90;;;;;;5091489;28;20387;-79
2022/05/13 03:23:34;;;;;;;9.15;4.95;;;15.00;99.90;;;;;;5073417;28;20147;-80
2022/05/13 03:26:01;;;;;;;6.93;4.53;;;14.90;99.90;;;;;;5091359;28;20158;-79
2022/05/13 03:28:27;;;;;;;4.70;3.63;;;14.90;99.90;;;;;;5091106;28;20027;-80
2022/05/13 03:30:53;;;;;;;4.72;4.00;;;14.90;99.90;;;;;;5090820;28;20028;-79
2022/05/13 03:33:20;;;;;;;7.55;3.63;;;14.90;99.90;;;;;;5073134;28;20181;-79
2022/05/13 03:35:46;;;;;;;11.43;4.85;;;;;;;;;;5091182;28;20031;-79
2022/05/13 03:38:12;;;;;;;6.80;3.88;;;14.80;99.90;;;;;;5091070;28;20070;-79
2022/05/13 03:40:38;;;;;;;3.85;3.38;;;14.80;99.90;;;;;;5091114;28;20464;-79
2022/05/13 03:43:05;;;;;;;6.03;3.50;;;14.80;99.90;;;;;;5072559;28;20357;-80
2022/05/13 03:45:32;;;;;;;7.15;4.90;;;14.70;99.90;;;;;;5090897;28;20480;-79
2022/05/13 03:47:59;;;;;;;7.28;4.55;;;14.80;99.90;;;;;;5090496;28;20069;-79
2022/05/13 03:50:26;;;;;;;6.15;4.10;;;14.80;99.90;;;;;;5090711;28;20469;-79
2022/05/13 03:52:51;;;;;;;4.85;3.70;;;12.30;99.90;;;;;;5090731;28;20034;-80
2022/05/13 03:55:17;;;;;;;4.50;3.25;;;14.80;99.90;;;;;;5090748;28;20099;-79
2022/05/13 03:57:43;;;;;;;8.77;4.65;;;14.80;99.90;;;;;;5090785;28;20038;-80
2022/05/13 04:00:11;;;;;;;3.88;3.45;;;14.80;99.90;;;;;;5090749;28;20027;-79
2022/05/13 04:02:37;;;;;;;4.15;3.33;;;14.80;99.90;;;;;;5090365;28;20078;-80
2022/05/13 04:10:34;;;;;;;3.92;3.58;;;14.80;99.90;;;;;;5090542;28;20308;-80
2022/05/13 04:18:28;;;;;;;9.30;3.88;;;14.80;99.90;;;;;;5091280;28;20400;-79
2022/05/13 04:20:54;;;;;;;4.22;3.17;;;14.80;99.90;;;;;;5090653;28;20020;-80
2022/05/13 04:23:23;;;;;;;5.47;3.75;;;14.80;99.90;;;;;;5090497;28;20020;-80
2022/05/13 04:25:49;;;;;;;8.85;4.28;;;14.80;99.90;;;;;;5089932;28;20028;-80
2022/05/13 04:28:16;;;;;;;11.45;5.07;;;14.80;99.90;;;;;;5090137;28;20077;-82
2022/05/13 04:30:42;;;;;;;5.85;3.67;;;14.80;99.90;;;;;;5090060;28;20286;-81
2022/05/13 04:33:11;;;;;;;7.40;4.15;;;14.70;99.90;;;;;;5072335;28;20207;-81
2022/05/13 04:35:36;;;;;;;7.63;5.13;;;14.70;99.90;;;;;;5090303;28;20039;-84
2022/05/13 04:38:02;;;;;;;7.85;4.00;;;14.70;99.90;;;;;;5090023;28;20055;-80
2022/05/13 04:40:28;;;;;;;5.10;3.33;;;14.70;99.90;;;;;;5090095;28;20059;-82
2022/05/13 04:42:53;;;;;;;6.43;4.07;;;14.80;99.90;;;;;;5071473;28;20024;-82
2022/05/13 04:45:24;;;;;;;6.60;4.53;;;14.80;99.90;;;;;;5071080;28;20050;-82
2022/05/13 04:50:39;;;;;;;7.80;4.07;;;14.80;99.90;;;;;;5089771;28;20403;-82
2022/05/13 04:53:06;;;;;;;4.40;3.70;;;14.80;99.90;;;;;;5071567;28;20046;-81
2022/05/13 04:55:32;;;;;;;6.10;4.35;;;;;;;;;;5090219;28;20024;-82
2022/05/13 04:57:58;;;;;;;9.02;4.45;;;14.90;99.90;;;;;;5089587;28;20042;-80
2022/05/13 05:00:24;;;;;;;7.00;5.15;;;14.90;99.90;;;;;;5072063;28;20031;-80
2022/05/13 05:02:50;;;;;;;8.75;4.45;;;15.00;99.90;;;;;;5089172;28;20166;-81
2022/05/13 05:05:16;;;;;;;9.43;5.45;;;;;;;;;;5089769;28;20560;-81
2022/05/13 05:07:41;;;;;;;5.72;4.22;;;15.00;99.90;;;;;;5071896;28;20441;-81
2022/05/13 05:10:07;;;;;;;6.75;5.30;;;15.00;99.90;;;;;;5089989;28;20092;-80
2022/05/13 05:12:33;;;;;;;6.57;4.25;;;15.00;99.90;;;;;;5090574;28;20450;-81
2022/05/13 05:14:59;;;;;;;8.60;4.15;;;15.00;99.90;;;;;;5071252;28;20072;-80
2022/05/13 05:17:25;;;;;;;4.28;3.63;;;15.00;99.90;;;;;;5087512;28;20031;-80
2022/05/13 05:19:50;;;;;;;7.55;4.45;;;15.10;99.90;;;;;;5070930;28;20028;-80
2022/05/13 05:22:16;;;;;;;5.88;5.03;;;15.10;99.90;;;;;;5079115;28;20023;-80
2022/05/13 05:24:42;;;;;;;5.65;3.95;;;15.10;99.90;;;;;;5094464;28;20423;-80
2022/05/13 05:27:09;;;;;;;6.07;4.85;;;15.10;99.90;;;;;;5071896;28;20024;-81
2022/05/13 05:29:36;;;;;;;4.65;3.75;;;15.10;99.90;;;;;;5078745;28;20027;-81
2022/05/13 05:32:02;;;;;;;7.65;4.05;;;15.10;99.90;;;;;;5090702;28;20066;-81
2022/05/13 05:34:28;;;;;;;5.47;3.65;;;15.20;99.90;;;;;;5071408;28;20084;-80
2022/05/13 05:36:54;;;;;;;5.60;4.47;;;15.10;99.90;;;;;;5071066;28;20027;-81
2022/05/13 05:39:20;;;;;;;8.18;4.22;;;;;;;;;;5069530;28;20141;-80
2022/05/13 05:41:46;;;;;;;6.78;4.10;;;15.20;99.90;;;;;;5069400;28;20454;-81
2022/05/13 05:44:12;;;;;;;5.18;4.15;;;15.20;99.90;;;;;;5069539;28;20035;-81
2022/05/13 05:46:38;;;;;;;6.82;3.50;;;15.40;99.90;;;;;;5069378;28;20082;-81
2022/05/13 05:49:04;;;;;;;5.18;4.03;;;15.50;99.90;;;;;;5088037;28;20043;-81
2022/05/13 05:51:30;;;;;;;5.20;4.10;;;15.60;99.90;;;;;;5087897;28;20028;-82
2022/05/13 05:59:29;;;;;;;5.13;3.63;;;15.60;99.90;;;;;;5091494;28;20548;-80
2022/05/13 06:01:55;;;;;;;5.28;3.13;;;15.70;99.90;;;;;;5072839;28;20032;-81
2022/05/13 06:04:21;;;;;;;4.60;3.97;;;15.70;99.90;;;;;;5072807;28;20074;-82
2022/05/13 06:06:47;;;;;;;3.97;2.92;;;15.80;99.90;;;;;;5072942;28;20396;-81
2022/05/13 06:09:12;;;;;;;6.75;4.32;;;15.90;99.90;;;;;;5091568;28;20023;-80
2022/05/13 06:11:38;;;;;;;5.40;2.97;;;16.00;99.90;;;;;;5092434;28;20059;-80
2022/05/13 06:14:04;;;;;;;6.60;3.70;;;;;;;;;;5074159;28;20552;-81
2022/05/13 06:16:31;;;;;;;36.20;19.08;;;16.10;99.90;;;;;;5092341;28;20545;-81
2022/05/13 06:19:00;;;;;;;9.52;5.60;;;16.00;99.90;;;;;;5074386;28;20020;-82
2022/05/13 06:21:27;;;;;;;7.28;3.97;;;16.20;99.90;;;;;;5092672;28;20404;-80
2022/05/13 06:23:54;;;;;;;4.97;3.78;;;;;;;;;;5074317;28;20035;-80
2022/05/13 06:26:21;;;;;;;7.20;5.03;;;16.30;99.90;;;;;;5074309;28;20028;-81
2022/05/13 06:28:47;;;;;;;7.97;4.38;;;16.40;99.90;;;;;;5074281;28;20111;-79
2022/05/13 06:31:13;;;;;;;6.00;4.10;;;16.40;99.90;;;;;;5073897;28;20028;-79
2022/05/13 06:33:38;;;;;;;5.80;3.90;;;15.00;99.90;;;;;;5073912;28;20175;-81
2022/05/13 06:36:05;;;;;;;8.20;4.28;;;16.60;99.90;;;;;;5096309;28;20251;-79
2022/05/13 06:38:30;;;;;;;7.10;5.07;;;16.60;99.90;;;;;;5078910;28;20127;-79
2022/05/13 06:40:56;;;;;;;7.10;3.92;;;16.60;99.90;;;;;;5093992;28;20048;-81
2022/05/13 06:43:25;;;;;;;6.00;4.25;;;16.80;99.90;;;;;;5075491;28;20035;-79
2022/05/13 06:45:51;;;;;;;4.50;3.60;;;16.80;99.90;;;;;;5075171;28;20469;-79
2022/05/13 06:48:17;;;;;;;7.70;3.60;;;16.90;99.90;;;;;;5073165;28;20434;-80
2022/05/13 06:50:46;;;;;;;4.03;3.20;;;;;;;;;;5078046;28;20052;-79
2022/05/13 06:53:12;;;;;;;6.18;4.40;;;17.00;99.90;;;;;;5077664;28;20016;-79
2022/05/13 06:55:39;;;;;;;4.57;3.58;;;17.10;99.90;;;;;;5097615;28;20020;-79
2022/05/13 06:58:06;;;;;;;4.82;3.45;;;17.00;99.90;;;;;;5080163;28;20024;-79
2022/05/13 07:00:32;;;;;;;5.25;3.38;;;16.90;99.90;;;;;;5072114;28;20406;-78
2022/05/13 07:02:58;;;;;;;6.28;3.90;;;17.00;99.90;;;;;;5071864;28;20409;-79
2022/05/13 07:05:23;;;;;;;5.38;3.65;;;17.20;99.90;;;;;;5071652;28;20039;-79
2022/05/13 07:07:49;;;;;;;8.43;3.92;;;17.20;99.90;;;;;;5071130;28;20021;-80
2022/05/13 07:10:15;;;;;;;7.47;3.90;;;17.40;99.90;;;;;;5071892;28;20040;-79
2022/05/13 07:12:41;;;;;;;6.22;3.05;;;17.50;99.90;;;;;;5071557;28;20024;-79
2022/05/13 07:15:11;;;;;;;3.15;2.67;;;17.60;99.90;;;;;;5090092;28;20050;-79
2022/05/13 07:17:40;;;;;;;6.18;3.70;;;17.50;99.90;;;;;;5071905;28;20048;-80
2022/05/13 07:20:06;;;;;;;;;;;17.60;99.90;;;;;;5072087;28;20032;-79
2022/05/13 07:22:34;;;;;;;3.53;3.03;;;17.70;99.90;;;;;;5090399;28;19905;-79
2022/05/13 07:25:00;;;;;;;2.80;2.53;;;17.70;99.90;;;;;;5073144;28;20039;-81
2022/05/13 07:27:26;;;;;;;2.50;2.28;;;17.60;99.90;;;;;;5072217;28;20439;-80
2022/05/13 07:29:52;;;;;;;3.33;2.60;;;17.60;99.90;;;;;;5091414;28;20028;-80
2022/05/13 07:32:17;;;;;;;2.42;2.05;;;17.50;99.90;;;;;;5075654;28;20080;-80
2022/05/13 07:34:43;;;;;;;1.67;1.58;;;17.50;99.90;;;;;;5093759;28;20353;-80
2022/05/13 07:37:09;;;;;;;4.70;1.85;;;17.50;99.90;;;;;;5079673;28;20500;-81
2022/05/13 07:42:20;;;;;;;5.38;2.33;;;17.40;99.90;;;;;;5092628;28;20023;-83
2022/05/13 07:44:46;;;;;;;3.22;1.80;;;17.50;99.90;;;;;;5090952;28;20063;-81
2022/05/13 07:47:14;;;;;;;2.40;1.80;;;17.50;99.90;;;;;;5072838;28;20031;-81
2022/05/13 07:49:42;;;;;;;4.13;2.53;;;17.30;99.90;;;;;;5073434;28;20584;-81
2022/05/13 07:52:09;;;;;;;4.60;1.93;;;17.10;99.90;;;;;;5075023;28;20024;-81
2022/05/13 07:54:35;;;;;;;3.83;2.80;;;17.10;99.90;;;;;;5093221;28;20036;-81
2022/05/13 07:57:01;;;;;;;2.88;2.45;;;17.00;99.90;;;;;;5076903;28;20457;-82
2022/05/13 07:59:27;;;;;;;3.67;2.00;;;;;;;;;;5094337;28;20016;-81
2022/05/13 08:01:54;;;;;;;3.17;2.30;;;16.90;99.90;;;;;;5075331;28;20031;-81
2022/05/13 08:04:19;;;;;;;4.00;2.40;;;16.70;99.90;;;;;;5073523;28;20498;-81
2022/05/13 08:06:45;;;;;;;3.53;3.20;;;16.70;99.90;;;;;;5075820;28;20027;-80
2022/05/13 08:09:12;;;;;;;4.28;2.80;;;16.80;99.90;;;;;;5075399;28;20121;-81
2022/05/13 08:11:37;;;;;;;8.00;3.53;;;16.90;99.90;;;;;;5074617;28;20054;-82
2022/05/13 08:14:03;;;;;;;2.47;2.28;;;17.00;99.90;;;;;;5075052;28;20483;-81
2022/05/13 08:16:30;;;;;;;5.25;2.92;;;17.10;99.90;;;;;;5074387;28;20463;-80
2022/05/13 08:19:01;;;;;;;3.08;2.60;;;17.10;99.90;;;;;;5092224;28;20020;-81
2022/05/13 08:21:29;;;;;;;6.82;2.58;;;17.10;99.90;;;;;;5073563;28;20066;-82
2022/05/13 08:23:55;;;;;;;2.78;2.42;;;;;;;;;;5073440;28;20027;-81
2022/05/13 08:26:21;;;;;;;3.83;2.78;;;17.10;99.90;;;;;;5091572;28;20032;-81
2022/05/13 08:28:47;;;;;;;5.97;2.22;;;17.10;99.90;;;;;;5073946;28;20020;-80
2022/05/13 08:31:16;;;;;;;3.78;1.80;;;17.20;99.90;;;;;;5092594;28;20030;-81
2022/05/13 08:33:42;;;;;;;2.35;2.13;;;17.20;99.90;;;;;;5076211;28;20052;-82
2022/05/13 08:36:08;;;;;;;5.00;2.22;;;17.20;99.90;;;;;;5076026;28;20032;-81
2022/05/13 08:38:38;;;;;;;4.97;2.33;;;17.20;99.90;;;;;;5073852;28;20027;-81
2022/05/13 08:41:09;;;;;;;3.10;2.50;;;17.10;99.90;;;;;;5076001;28;20023;-81
2022/05/13 08:43:38;;;;;;;4.78;3.03;;;17.10;99.90;;;;;;5095097;28;20024;-81
2022/05/13 08:46:16;;;;;;;5.65;2.22;;;17.20;99.90;;;;;;5093766;28;20031;-82
2022/05/13 08:48:54;;;;;;;2.88;2.38;;;17.30;99.90;;;;;;5075700;28;20052;-81
2022/05/13 08:51:53;;;;;;;3.28;1.77;;;17.40;99.90;;;;;;5074612;28;20118;-82
2022/05/13 08:54:22;;;;;;;2.90;2.33;;;17.60;99.90;;;;;;5073622;28;20033;-82
2022/05/13 08:56:55;;;;;;;3.13;2.22;;;17.70;99.90;;;;;;5091901;28;20020;-82
2022/05/13 08:59:22;;;;;;;1.98;1.77;;;17.90;99.90;;;;;;5073700;28;20066;-80
2022/05/13 09:02:16;;;;;;;7.72;2.47;;;17.90;99.90;;;;;;5073635;28;20024;-82
2022/05/13 09:04:48;;;;;;;2.30;1.92;;;18.10;99.90;;;;;;5090450;28;20077;-81
2022/05/13 09:07:20;;;;;;;3.67;1.75;;;18.50;99.90;;;;;;5071365;28;20024;-81
2022/05/13 09:09:52;;;;;;;4.00;2.50;;;18.80;99.90;;;;;;5092893;28;20073;-80
2022/05/13 09:12:42;;;;;;;4.07;1.65;;;19.00;99.90;;;;;;5089889;28;20028;-81
2022/05/13 09:15:19;;;;;;;3.65;2.20;;;19.00;99.90;;;;;;5089252;28;20496;-80
2022/05/13 09:18:05;;;;;;;2.47;1.42;;;19.20;99.90;;;;;;5092418;28;20051;-83
2022/05/13 09:20:42;;;;;;;2.72;1.80;;;19.00;99.90;;;;;;5073701;28;20039;-83
2022/05/13 09:23:11;;;;;;;3.60;2.55;;;18.90;99.90;;;;;;5090349;28;20266;-81
2022/05/13 09:25:53;;;;;;;2.65;1.75;;;18.70;99.90;;;;;;5071588;28;20036;-82
2022/05/13 09:28:19;;;;;;;6.03;2.08;;;18.20;99.90;;;;;;5089652;28;20020;-81
2022/05/13 09:30:48;;;;;;;2.45;1.50;;;18.20;99.90;;;;;;5092131;28;20077;-81
2022/05/13 09:33:24;;;;;;;2.72;1.63;;;18.20;99.90;;;;;;5074438;28;20035;-81
2022/05/13 09:35:56;;;;;;;2.67;1.80;;;18.40;99.90;;;;;;5077867;28;20417;-82
2022/05/13 09:38:30;;;;;;;3.45;2.42;;;18.40;99.90;;;;;;5098344;28;20028;-82
2022/05/13 09:41:01;;;;;;;2.10;1.20;;;;;;;;;;5079168;28;20035;-81
2022/05/13 09:43:37;;;;;;;2.35;1.75;;;18.70;99.90;;;;;;5094155;28;20032;-82
2022/05/13 09:46:09;;;;;;;2.75;1.40;;;19.00;99.90;;;;;;5083232;28;20306;-81
2022/05/13 09:48:38;;;;;;;2.80;1.80;;;19.10;99.90;;;;;;5099054;28;20020;-80
2022/05/13 09:51:22;;;;;;;4.22;1.92;;;19.40;99.90;;;;;;5098452;28;20031;-81
2022/05/13 09:54:06;;;;;;;4.05;1.63;;;19.50;99.90;;;;;;5098551;28;20103;-82
2022/05/13 09:56:44;;;;;;;3.97;2.35;;;19.80;99.90;;;;;;5076134;28;20020;-82
2022/05/13 09:59:24;;;;;;;4.13;1.47;;;20.50;99.90;;;;;;5093513;28;20446;-82
2022/05/13 10:01:51;;;;;;;5.25;1.70;;;20.80;99.90;;;;;;5093363;28;20262;-80
2022/05/13 10:04:19;;;;;;;2.22;1.80;;;21.50;99.90;;;;;;5092633;28;20024;-83
2022/05/13 10:06:47;;;;;;;4.68;2.97;;;21.50;99.90;;;;;;5074918;28;20496;-81
2022/05/13 10:15:14;;;;;;;2.38;2.10;;;20.80;99.90;;;;;;5096888;28;20054;-81
2022/05/13 10:17:47;;;;;;;1.55;1.45;;;20.00;99.90;;;;;;5096276;28;20031;-81
2022/05/13 10:20:22;;;;;;;2.10;1.90;;;20.10;99.90;;;;;;5078280;28;20047;-81
2022/05/13 10:22:53;;;;;;;4.40;2.08;;;20.00;99.90;;;;;;5078301;28;20118;-81
2022/05/13 10:25:45;;;;;;;3.33;1.48;;;20.20;99.90;;;;;;5093134;28;20132;-83
2022/05/13 10:28:15;;;;;;;3.47;2.17;;;20.40;99.90;;;;;;5092638;28;20028;-81
2022/05/13 10:30:49;;;;;;;3.17;2.08;;;20.60;99.90;;;;;;5074774;28;20388;-81
2022/05/13 10:33:21;;;;;;;5.32;1.85;;;20.50;99.90;;;;;;5073998;28;20024;-82
2022/05/13 10:36:16;;;;;;;3.55;1.58;;;20.90;99.90;;;;;;5074203;28;20025;-81
2022/05/13 10:38:59;;;;;;;6.15;2.15;;;20.80;99.90;;;;;;5065314;28;20028;-82
2022/05/13 10:41:45;;;;;;;4.30;1.88;;;21.10;99.90;;;;;;5091976;28;20441;-81
2022/05/13 10:44:23;;;;;;;5.65;1.65;;;21.30;99.90;;;;;;5093100;28;20056;-83
2022/05/13 10:46:54;;;;;;;2.45;1.77;;;21.50;99.90;;;;;;5074429;28;20396;-82
2022/05/13 10:49:23;;;;;;;3.25;2.28;;;21.60;99.90;;;;;;5092203;28;20016;-81
2022/05/13 10:52:20;;;;;;;1.73;1.57;;;21.20;99.90;;;;;;5073672;28;20035;-81
2022/05/13 10:54:48;;;;;;;8.93;2.78;;;21.20;99.90;;;;;;5073520;28;20027;-79
2022/05/13 10:57:37;;;;;;;4.28;2.45;;;20.80;99.90;;;;;;5073936;28;20032;-80
2022/05/13 11:00:15;;;;;;;2.88;2.22;;;20.80;99.90;;;;;;5076013;28;20043;-80
2022/05/13 11:02:53;;;;;;;3.88;2.35;;;20.60;99.90;;;;;;5074644;28;20039;-81
2022/05/13 11:05:25;;;;;;;2.28;1.98;;;20.60;99.90;;;;;;5075971;28;20455;-81
2022/05/13 11:08:00;;;;;;;3.30;2.47;;;20.70;99.90;;;;;;5072530;28;20195;-81
2022/05/13 11:10:35;;;;;;;4.20;2.28;;;20.40;99.90;;;;;;5072036;28;20392;-80
2022/05/13 11:13:19;;;;;;;2.05;1.88;;;20.30;99.90;;;;;;5074256;28;20258;-82
2022/05/13 11:15:56;;;;;;;8.00;2.28;;;20.30;99.90;;;;;;5048538;28;20033;-82
2022/05/13 11:18:41;;;;;;;2.53;2.33;;;21.30;99.90;;;;;;5049948;28;20053;-81
2022/05/13 11:21:40;;;;;;;3.85;2.75;;;21.80;99.90;;;;;;5048472;28;20031;-81
2022/05/13 11:27:23;;;;;;;6.65;2.42;;;22.10;99.90;;;;;;5051588;28;20110;-82
2022/05/13 11:29:58;;;;;;;2.13;1.92;;;22.20;99.90;;;;;;5049440;28;20029;-81
2022/05/13 11:32:36;;;;;;;3.90;1.70;;;22.20;99.90;;;;;;5049743;28;20108;-80
2022/05/13 11:35:20;;;;;;;2.07;1.93;;;22.50;99.90;;;;;;5051121;28;20032;-84
2022/05/13 11:37:46;;;;;;;4.40;2.40;;;22.70;99.90;;;;;;5051204;28;20056;-84
2022/05/13 11:40:22;;;;;;;2.55;2.35;;;22.30;99.90;;;;;;5050691;28;20485;-82
2022/05/13 11:43:19;;;;;;;2.25;2.00;;;21.90;99.90;;;;;;5049697;28;20086;-81
2022/05/13 11:45:55;;;;;;;3.42;2.20;;;;;;;;;;5049590;28;20086;-93
2022/05/13 11:48:27;;;;;;;2.38;1.85;;;22.50;99.90;;;;;;5050859;28;20035;-90
2022/05/13 11:51:02;;;;;;;5.07;2.50;;;22.20;99.90;;;;;;5050774;28;20436;-86
2022/05/13 11:54:00;;;;;;;6.10;2.20;;;22.60;99.90;;;;;;5050299;28;20025;-85
2022/05/13 11:56:26;;;;;;;5.63;1.73;;;23.20;99.90;;;;;;5029142;28;20041;-85
2022/05/13 11:58:55;;;;;;;3.15;1.27;;;23.50;99.90;;;;;;5050397;28;20028;-86
2022/05/13 12:01:48;;;;;;;2.35;2.15;;;23.70;99.90;;;;;;5049921;28;20055;-86
2022/05/13 12:04:17;;;;;;;1.77;1.13;;;23.50;99.90;;;;;;5049386;28;20047;-80
2022/05/13 12:06:51;;;;;;;1.83;1.48;;;23.30;99.90;;;;;;5050752;28;20029;-82
2022/05/13 12:09:21;;;;;;;1.92;1.38;;;23.50;99.90;;;;;;5049219;28;20433;-81
2022/05/13 12:12:29;;;;;;;2.85;1.15;;;23.80;99.90;;;;;;5048810;28;20374;-82
2022/05/13 12:15:04;;;;;;;3.78;1.55;;;24.40;99.90;;;;;;5033087;28;20048;-84
2022/05/13 12:17:41;;;;;;;3.95;1.42;;;24.50;99.00;;;;;;5068710;28;20029;-84
2022/05/13 12:20:13;;;;;;;4.47;1.48;;;25.00;99.90;;;;;;5068914;28;20032;-82
2022/05/13 12:23:05;;;;;;;2.28;1.40;;;25.40;91.10;;;;;;5068947;28;20024;-83
2022/05/13 12:25:31;;;;;;;1.73;1.08;;;24.50;79.20;;;;;;5068428;28;20045;-83
2022/05/13 12:28:04;;;;;;;1.40;1.30;;;23.70;95.40;;;;;;5069203;28;20155;-84
2022/05/13 12:30:33;;;;;;;2.92;0.90;;;23.20;99.90;;;;;;5069023;28;20093;-84
2022/05/13 12:33:17;;;;;;;;;;;23.60;99.90;;;;;;5069108;28;20025;-84
2022/05/13 12:38:32;;;;;;;2.92;1.75;;;24.50;99.90;;;;;;5070586;28;20058;-83
2022/05/13 12:41:14;;;;;;;2.22;1.38;;;24.50;99.90;;;;;;5068928;28;20029;-83
2022/05/13 12:44:06;;;;;;;1.73;1.00;;;24.40;99.70;;;;;;5070064;28;20260;-84
2022/05/13 12:47:00;;;;;;;2.95;1.33;;;24.10;98.30;;;;;;5068695;28;20485;-83
2022/05/13 12:49:48;;;;;;;1.90;1.58;;;24.10;96.00;;;;;;5068553;28;20434;-83
2022/05/13 12:52:29;;;;;;;1.65;1.05;;;24.50;99.90;;;;;;5068278;28;20510;-83
2022/05/13 12:55:18;;;;;;;0.90;0.90;;;24.80;85.80;;;;;;5068547;28;20056;-83
2022/05/13 12:57:53;;;;;;;1.45;1.05;;;24.50;87.80;;;;;;5058605;28;20035;-83
2022/05/13 13:00:33;;;;;;;3.55;1.40;;;23.50;99.30;;;;;;5060786;28;20039;-88
2022/05/13 13:03:00;;;;;;;2.20;1.13;;;23.80;99.90;;;;;;5068115;28;20750;-87
2022/05/13 13:05:34;;;;;;;1.65;0.95;;;25.10;91.00;;;;;;5065986;28;20043;-87
2022/05/13 13:08:27;;;;;;;0.80;0.80;;;;;;;;;;5068219;28;20040;-90
2022/05/13 13:11:09;;;;;;;8.32;2.13;;;25.10;89.70;;;;;;5065210;28;20052;-88
2022/05/13 13:13:58;;;;;;;3.33;1.27;;;25.40;79.90;;;;;;5067784;28;20048;-87
2022/05/13 13:16:38;;;;;;;6.50;1.45;;;25.10;78.00;;;;;;5055454;28;20416;-88
2022/05/13 13:19:11;;;;;;;2.87;1.07;;;25.60;69.90;;;;;;5069619;28;20040;-89
2022/05/13 13:21:38;;;;;;;3.45;1.67;;;25.20;74.00;;;;;;5087974;28;20047;-88
2022/05/13 13:24:17;;;;;;;2.13;1.45;;;25.20;75.60;;;;;;5070239;28;20190;-87
2022/05/13 13:26:48;;;;;;;2.10;1.05;;;25.30;81.30;;;;;;5069315;28;20032;-87
2022/05/13 13:29:20;;;;;;;5.30;1.63;;;25.60;75.20;;;;;;5069596;28;20024;-87
2022/05/13 13:31:48;;;;;;;2.22;1.17;;;25.80;72.30;;;;;;5069646;28;20043;-87
2022/05/13 13:34:24;;;;;;;0.88;0.73;;;25.60;72.80;;;;;;5069469;28;20056;-89
2022/05/13 13:36:51;;;;;;;2.10;1.00;;;25.20;81.50;;;;;;5069936;28;20036;-86
2022/05/13 13:39:17;;;;;;;2.15;1.00;;;25.10;73.90;;;;;;5070052;28;20076;-87
2022/05/13 13:41:47;;;;;;;2.13;1.50;;;25.60;82.00;;;;;;5070194;28;20424;-86
2022/05/13 13:44:14;;;;;;;2.45;1.50;;;24.30;83.20;;;;;;5069584;28;20026;-92
2022/05/13 13:46:50;;;;;;;7.30;1.85;;;24.20;84.60;;;;;;5087816;28;20115;-89
2022/05/13 13:49:18;;;;;;;3.00;1.63;;;24.10;93.20;;;;;;5075698;28;20168;-93